Time;durP1;ratioP1;P1;durP2;ratioP2;P2;SDS_P1;SDS_P2;PMS_P1;PMS_P2;Temp;Humidity;BMP_temperature;BMP_pressure;BME280_temperature;BME280_humidity;BME280_pressure;Samples;Min_cycle;Max_cycle;Signal;HPM_P1;HPM_P2
2022/01/13 00:00:58;;;;;;;0.20;0.20;;;;;;;19.01;38.40;103705.72;5157137;27;20070;-32
2022/01/13 00:03:24;;;;;;;0.20;0.20;;;;;;;19.00;38.22;103712.31;5155935;27;20049;-32
2022/01/13 00:05:50;;;;;;;0.20;0.20;;;;;;;19.01;38.26;103711.25;5154991;27;20490;-35
2022/01/13 00:08:16;;;;;;;0.20;0.20;;;;;;;19.00;38.16;103724.22;5146178;27;20049;-32
2022/01/13 00:10:42;;;;;;;0.20;0.20;;;;;;;18.97;38.19;103716.34;5122417;27;20038;-32
2022/01/13 00:13:09;;;;;;;0.20;0.20;;;;;;;18.98;38.27;103723.56;5153051;27;20043;-32
2022/01/13 00:16:23;;;;;;;0.20;0.20;;;;;;;19.00;38.28;103712.31;5158179;27;20089;-32
2022/01/13 00:18:39;;;;;;;0.20;0.20;;;;;;;18.99;38.21;103719.72;5138428;27;20065;-32
2022/01/13 00:21:38;;;;;;;0.22;0.22;;;;;;;18.98;38.46;103718.03;5135515;27;20085;-32
2022/01/13 00:23:53;;;;;;;0.20;0.20;;;;;;;18.98;38.12;103711.66;5092545;27;20081;-32
2022/01/13 00:26:24;;;;;;;0.20;0.20;;;;;;;18.97;38.45;103707.22;5139562;27;20434;-32
2022/01/13 00:28:52;;;;;;;0.20;0.20;;;;;;;18.98;38.12;103718.03;5136180;27;20071;-32
2022/01/13 00:31:24;;;;;;;0.20;0.20;;;;;;;18.99;38.33;103713.38;5140862;27;20083;-33
2022/01/13 00:33:54;;;;;;;0.20;0.20;;;;;;;18.97;38.46;103709.97;5117894;27;20130;-32
2022/01/13 00:36:21;;;;;;;0.20;0.20;;;;;;;18.96;38.15;103702.75;5121425;27;20072;-32
2022/01/13 00:38:47;;;;;;;0.20;0.20;;;;;;;18.96;38.39;103711.91;5138844;27;20122;-33
2022/01/13 00:41:13;;;;;;;0.20;0.20;;;;;;;18.97;38.44;103707.22;5138731;27;20054;-33
2022/01/13 00:43:41;;;;;;;0.20;0.20;;;;;;;18.97;38.23;103712.75;5134988;27;20043;-33
2022/01/13 00:46:07;;;;;;;0.20;0.20;;;;;;;18.97;38.28;103718.25;5137536;27;20465;-32
2022/01/13 00:48:33;;;;;;;0.20;0.20;;;;;;;18.97;38.46;103721.03;5136007;27;20369;-38
2022/01/13 00:50:59;;;;;;;0.30;0.30;;;;;;;18.97;38.46;103726.56;5136441;27;20055;-32
2022/01/13 00:53:24;;;;;;;0.20;0.20;;;;;;;18.95;38.36;103715.69;5114643;27;20126;-32
2022/01/13 00:56:05;;;;;;;0.20;0.20;;;;;;;18.96;38.28;103720.19;5134101;27;20046;-33
2022/01/13 00:58:33;;;;;;;0.30;0.30;;;;;;;18.95;38.40;103718.47;5134566;27;20226;-32
2022/01/13 01:01:00;;;;;;;0.20;0.20;;;;;;;18.96;38.37;103722.09;5132483;27;20602;-34
2022/01/13 01:03:26;;;;;;;0.30;0.30;;;;;;;18.96;38.57;103730.38;5120023;27;20071;-32
2022/01/13 01:05:52;;;;;;;0.20;0.20;;;;;;;18.94;38.48;103726.97;5097287;28;20482;-33
2022/01/13 01:08:18;;;;;;;0.20;0.20;;;;;;;18.93;38.25;103734.41;5115382;28;20086;-33
2022/01/13 01:10:48;;;;;;;0.30;0.30;;;;;;;18.96;38.54;103733.13;5122350;28;20485;-32
2022/01/13 01:13:18;;;;;;;0.30;0.30;;;;;;;18.94;38.49;103733.34;5081737;28;20086;-33
2022/01/13 01:15:48;;;;;;;0.22;0.22;;;;;;;18.93;38.17;103733.56;5100850;28;20082;-34
2022/01/13 01:18:40;;;;;;;0.30;0.30;;;;;;;18.93;38.30;103728.03;5100421;28;20070;-33
2022/01/13 01:21:31;;;;;;;0.30;0.30;;;;;;;18.92;38.30;103724.44;5103077;28;20097;-32
2022/01/13 01:26:31;;;;;;;0.20;0.20;;;;;;;18.94;38.50;103721.44;5107692;28;20067;-34
2022/01/13 01:31:30;;;;;;;0.20;0.20;;;;;;;18.94;38.33;103724.19;5106221;28;20074;-32
2022/01/13 01:34:17;;;;;;;0.20;0.20;;;;;;;18.94;38.30;103729.72;5105839;28;20079;-33
2022/01/13 01:36:43;;;;;;;0.20;0.20;;;;;;;18.93;38.46;103728.03;5097156;28;20090;-33
2022/01/13 01:39:09;;;;;;;0.20;0.20;;;;;;;18.91;38.52;103728.25;5090549;28;20036;-32
2022/01/13 01:41:37;;;;;;;0.30;0.30;;;;;;;18.92;38.30;103723.56;5106629;28;20067;-32
2022/01/13 01:44:07;;;;;;;0.20;0.20;;;;;;;18.93;38.41;103725.28;5112436;28;20075;-32
2022/01/13 01:46:34;;;;;;;0.20;0.20;;;;;;;18.92;38.42;103724.44;5124605;27;20079;-32
2022/01/13 01:49:04;;;;;;;0.20;0.20;;;;;;;18.92;38.25;103726.34;5109395;28;20119;-32
2022/01/13 01:51:29;;;;;;;0.20;0.20;;;;;;;18.91;38.52;103728.25;5106038;28;20389;-32
2022/01/13 01:53:55;;;;;;;0.30;0.30;;;;;;;18.91;38.32;103735.66;5120459;28;20039;-32
2022/01/13 01:56:21;;;;;;;0.30;0.30;;;;;;;18.91;38.60;103744.81;5126278;28;20047;-33
2022/01/13 01:58:46;;;;;;;0.20;0.20;;;;;;;18.91;38.32;103746.72;5122333;28;20054;-34
2022/01/13 02:01:13;;;;;;;0.20;0.20;;;;;;;18.89;38.58;103748.84;5128197;28;20066;-32
2022/01/13 02:03:40;;;;;;;0.20;0.20;;;;;;;18.89;38.57;103746.94;5115178;28;20539;-32
2022/01/13 02:06:05;;;;;;;0.20;0.20;;;;;;;18.90;38.52;103748.63;5128588;28;20093;-32
2022/01/13 02:08:31;;;;;;;0.20;0.20;;;;;;;18.90;38.33;103747.78;5106864;28;20389;-36
2022/01/13 02:10:57;;;;;;;0.20;0.20;;;;;;;18.89;38.34;103746.94;5122599;28;20043;-32
2022/01/13 02:13:24;;;;;;;0.20;0.20;;;;;;;18.90;38.84;103759.66;5120700;28;20039;-33
2022/01/13 02:16:17;;;;;;;0.20;0.20;;;;;;;18.88;38.36;103753.53;5121360;27;20086;-34
2022/01/13 02:18:37;;;;;;;0.20;0.20;;;;;;;18.89;38.60;103754.38;5109425;28;20043;-35
2022/01/13 02:21:04;;;;;;;0.20;0.20;;;;;;;18.88;38.38;103752.69;5124168;28;20198;-32
2022/01/13 02:23:38;;;;;;;0.20;0.20;;;;;;;18.90;38.36;103745.00;5121239;28;20486;-32
2022/01/13 02:26:07;;;;;;;0.30;0.30;;;;;;;18.89;38.45;103741.41;5118958;28;20621;-32
2022/01/13 02:28:34;;;;;;;0.30;0.30;;;;;;;18.89;38.34;103738.66;5105528;28;20068;-38
2022/01/13 02:31:00;;;;;;;0.20;0.20;;;;;;;18.88;38.55;103738.88;5122307;28;20393;-33
2022/01/13 02:33:26;;;;;;;0.20;0.20;;;;;;;18.88;38.35;103736.94;5117446;28;20089;-33
2022/01/13 02:35:52;;;;;;;0.20;0.20;;;;;;;18.87;38.51;103728.84;5107604;28;20039;-33
2022/01/13 02:38:17;;;;;;;0.20;0.20;;;;;;;18.88;38.56;103727.81;5108848;28;20115;-32
2022/01/13 02:40:43;;;;;;;0.20;0.20;;;;;;;18.87;38.38;103728.84;5123016;28;20100;-32
2022/01/13 02:43:09;;;;;;;0.20;0.20;;;;;;;18.88;38.53;103736.09;5105035;28;20319;-32
2022/01/13 02:45:38;;;;;;;0.20;0.20;;;;;;;18.87;38.48;103732.50;5126026;27;20484;-32
2022/01/13 02:48:27;;;;;;;0.25;0.25;;;;;;;18.87;38.37;103731.63;5122431;28;20112;-32
2022/01/13 02:50:53;;;;;;;0.20;0.20;;;;;;;18.86;38.62;103727.16;5093151;28;20047;-32
2022/01/13 02:53:18;;;;;;;0.20;0.20;;;;;;;18.86;38.39;103730.78;5116398;28;20465;-35
2022/01/13 02:55:44;;;;;;;0.20;0.20;;;;;;;18.89;38.60;103735.88;5117895;28;20051;-32
2022/01/13 02:58:13;;;;;;;0.20;0.20;;;;;;;18.89;38.54;103726.75;5125567;28;20051;-32
2022/01/13 03:00:40;;;;;;;0.20;0.20;;;;;;;18.87;38.53;103729.75;5103013;28;20563;-32
2022/01/13 03:03:06;;;;;;;0.20;0.20;;;;;;;18.88;38.56;103719.53;5121209;28;20046;-33
2022/01/13 03:05:36;;;;;;;0.20;0.20;;;;;;;18.86;38.44;103711.44;5119375;28;20453;-35
2022/01/13 03:08:02;;;;;;;0.20;0.20;;;;;;;18.85;38.60;103712.50;5122590;28;20060;-32
2022/01/13 03:10:28;;;;;;;0.20;0.20;;;;;;;18.86;38.69;103710.59;5121378;28;20133;-32
2022/01/13 03:12:55;;;;;;;0.20;0.20;;;;;;;18.85;38.51;103700.63;5100552;28;20047;-32
2022/01/13 03:15:21;;;;;;;0.20;0.20;;;;;;;18.85;38.56;103709.75;5121265;28;20095;-32
2022/01/13 03:17:47;;;;;;;0.20;0.20;;;;;;;18.84;38.46;103702.53;5122745;28;20386;-32
2022/01/13 03:20:13;;;;;;;0.20;0.20;;;;;;;18.85;38.60;103706.16;5124982;28;20070;-32
2022/01/13 03:22:38;;;;;;;0.20;0.20;;;;;;;18.85;38.44;103714.44;5118600;28;20081;-34
2022/01/13 03:25:05;;;;;;;0.30;0.30;;;;;;;18.84;38.60;103723.78;5104421;28;20042;-32
2022/01/13 03:27:34;;;;;;;0.28;0.28;;;;;;;18.85;38.38;103726.31;5118706;28;20457;-32
2022/01/13 03:30:04;;;;;;;0.20;0.20;;;;;;;18.85;38.52;103722.72;5123879;28;20183;-32
2022/01/13 03:32:30;;;;;;;0.28;0.28;;;;;;;18.85;38.60;103723.56;5084128;28;20474;-32
2022/01/13 03:34:56;;;;;;;0.20;0.20;;;;;;;18.85;38.32;103722.72;5122422;28;20055;-32
2022/01/13 03:37:22;;;;;;;0.30;0.30;;;;;;;18.85;38.63;103714.44;5125116;28;20390;-33
2022/01/13 03:39:47;;;;;;;0.20;0.20;;;;;;;18.83;38.45;103709.13;5126159;28;20035;-32
2022/01/13 03:42:14;;;;;;;0.20;0.20;;;;;;;18.84;38.56;103707.22;5121674;28;20054;-34
2022/01/13 03:44:40;;;;;;;0.20;0.20;;;;;;;18.84;38.69;103709.97;5121249;27;20078;-35
2022/01/13 03:47:05;;;;;;;0.20;0.20;;;;;;;18.83;38.63;103716.56;5118845;28;20407;-34
2022/01/13 03:49:32;;;;;;;0.20;0.20;;;;;;;18.84;38.63;103724.63;5123770;28;20080;-37
2022/01/13 03:55:17;;;;;;;0.20;0.20;;;;;;;18.84;38.77;103713.59;5149908;27;20197;-33
2022/01/13 03:58:23;;;;;;;0.20;0.20;;;;;;;18.82;38.56;103726.72;5127175;27;20353;-32
2022/01/13 04:01:18;;;;;;;0.20;0.20;;;;;;;18.82;38.72;103726.72;5129201;27;20098;-33
2022/01/13 04:03:44;;;;;;;0.20;0.20;;;;;;;18.82;38.68;103728.66;5144536;27;20408;-34
2022/01/13 04:08:53;;;;;;;0.20;0.20;;;;;;;18.83;38.65;103728.47;5165516;27;20189;-32
2022/01/13 04:11:24;;;;;;;0.20;0.20;;;;;;;18.83;38.56;103727.59;5143981;27;20049;-34
2022/01/13 04:13:56;;;;;;;0.30;0.30;;;;;;;18.82;38.76;103726.72;5130921;27;20049;-32
2022/01/13 04:16:27;;;;;;;0.30;0.30;;;;;;;18.82;38.74;103717.59;5124001;27;20043;-32
2022/01/13 04:18:55;;;;;;;0.20;0.20;;;;;;;18.81;38.56;103714.00;5137287;27;20047;-32
2022/01/13 04:21:21;;;;;;;0.20;0.20;;;;;;;18.81;38.54;103711.22;5091209;27;20501;-32
2022/01/13 04:23:48;;;;;;;0.20;0.20;;;;;;;18.80;38.63;103715.06;5123755;27;20075;-32
2022/01/13 04:26:18;;;;;;;0.20;0.20;;;;;;;18.82;38.70;103715.69;5103808;28;20519;-33
2022/01/13 04:28:44;;;;;;;0.20;0.20;;;;;;;18.82;38.50;103720.38;5119438;27;20051;-33
2022/01/13 04:31:10;;;;;;;0.30;0.30;;;;;;;18.78;38.56;103707.00;5121032;27;20039;-32
2022/01/13 04:33:36;;;;;;;0.30;0.30;;;;;;;18.80;38.80;103713.16;5103950;27;20121;-33
2022/01/13 04:36:04;;;;;;;0.30;0.30;;;;;;;18.80;38.62;103710.38;5121287;27;20065;-33
2022/01/13 04:38:30;;;;;;;0.20;0.20;;;;;;;18.79;38.71;103705.94;5119708;27;20089;-35
2022/01/13 04:40:57;;;;;;;0.20;0.20;;;;;;;18.81;38.68;103694.66;5120827;27;20283;-32
2022/01/13 04:43:24;;;;;;;0.20;0.20;;;;;;;18.82;38.67;103696.34;5122836;27;20043;-32
2022/01/13 04:45:50;;;;;;;0.20;0.20;;;;;;;18.80;38.78;103698.50;5119091;27;20427;-37
2022/01/13 04:48:16;;;;;;;0.22;0.22;;;;;;;18.80;38.76;103699.34;5120230;27;20046;-36
2022/01/13 04:50:43;;;;;;;0.30;0.30;;;;;;;18.82;38.72;103698.28;5103280;27;20047;-32
2022/01/13 04:53:08;;;;;;;0.20;0.20;;;;;;;18.79;38.75;103703.19;5103021;27;20074;-35
2022/01/13 04:55:36;;;;;;;0.20;0.20;;;;;;;18.80;38.65;103704.03;5122958;27;20126;-33
2022/01/13 04:58:03;;;;;;;0.20;0.20;;;;;;;18.80;38.73;103699.34;5102038;28;20163;-37
2022/01/13 05:00:29;;;;;;;0.20;0.20;;;;;;;18.79;38.54;103700.41;5123249;27;20133;-34
2022/01/13 05:02:55;;;;;;;0.20;0.20;;;;;;;18.79;38.74;103683.00;5088612;28;20057;-34
2022/01/13 05:05:21;;;;;;;0.30;0.30;;;;;;;18.80;38.49;103690.22;5102960;28;20044;-32
2022/01/13 05:07:47;;;;;;;0.30;0.30;;;;;;;18.79;38.66;103683.84;5119716;27;20097;-34
2022/01/13 05:10:13;;;;;;;0.20;0.20;;;;;;;18.79;38.75;103689.38;5100844;28;20063;-37
2022/01/13 05:12:43;;;;;;;0.20;0.20;;;;;;;18.78;38.60;103682.16;5120241;27;20185;-36
2022/01/13 05:15:15;;;;;;;0.30;0.30;;;;;;;18.79;38.80;103680.25;5122213;27;20100;-32
2022/01/13 05:20:39;;;;;;;0.20;0.20;;;;;;;18.80;38.56;103676.41;5167703;27;20533;-37
2022/01/13 05:23:07;;;;;;;0.30;0.30;;;;;;;18.78;38.59;103657.31;5133037;27;20041;-33
2022/01/13 05:25:33;;;;;;;0.10;0.10;;;;;;;18.80;38.55;103662.59;5142656;27;20053;-33
2022/01/13 05:27:59;;;;;;;0.30;0.30;;;;;;;18.79;38.52;103653.47;5134931;27;20046;-32
2022/01/13 05:30:25;;;;;;;0.30;0.30;;;;;;;18.78;38.60;103657.31;5136270;27;20057;-32
2022/01/13 05:32:50;;;;;;;0.20;0.20;;;;;;;18.77;38.69;103663.88;5135436;27;20046;-32
2022/01/13 05:35:16;;;;;;;0.28;0.28;;;;;;;18.78;38.69;103668.34;5159145;27;20038;-33
2022/01/13 05:37:43;;;;;;;0.30;0.30;;;;;;;18.78;38.71;103668.34;5156371;27;20462;-33
2022/01/13 05:40:11;;;;;;;0.20;0.20;;;;;;;18.78;38.77;103670.22;5160139;27;20061;-32
2022/01/13 05:42:36;;;;;;;0.20;0.20;;;;;;;18.79;38.85;103678.31;5133920;27;20074;-36
2022/01/13 05:45:03;;;;;;;0.20;0.20;;;;;;;18.79;38.71;103685.75;5160478;27;20085;-33
2022/01/13 05:47:28;;;;;;;0.20;0.20;;;;;;;18.77;38.62;103682.34;5134052;27;20039;-32
2022/01/13 05:49:54;;;;;;;0.20;0.20;;;;;;;18.77;38.67;103680.44;5154468;27;20115;-32
2022/01/13 05:52:20;;;;;;;0.20;0.20;;;;;;;18.78;38.70;103673.88;5152190;27;20043;-34
2022/01/13 05:54:46;;;;;;;0.20;0.20;;;;;;;18.77;38.86;103679.59;5152985;27;20535;-33
2022/01/13 05:57:11;;;;;;;0.20;0.20;;;;;;;18.77;38.65;103676.81;5151829;27;20051;-35
2022/01/13 05:59:37;;;;;;;0.20;0.20;;;;;;;18.76;38.67;103667.69;5154662;27;20509;-33
2022/01/13 06:02:04;;;;;;;0.30;0.30;;;;;;;18.77;38.79;103668.53;5154053;27;20050;-32
2022/01/13 06:04:30;;;;;;;0.30;0.30;;;;;;;18.77;38.84;103661.09;5156563;27;20388;-33
2022/01/13 06:06:55;;;;;;;0.28;0.28;;;;;;;18.77;38.66;103652.81;5157544;27;20046;-33
2022/01/13 06:09:21;;;;;;;0.30;0.30;;;;;;;18.77;38.75;103660.25;5157828;27;20730;-32
2022/01/13 06:11:58;;;;;;;0.20;0.20;;;;;;;18.76;38.89;103656.66;5156550;27;20042;-34
2022/01/13 06:14:24;;;;;;;0.20;0.20;;;;;;;18.78;38.61;103653.66;5154212;27;20048;-35
2022/01/13 06:16:49;;;;;;;0.30;0.30;;;;;;;18.76;38.76;103651.13;5153619;27;20079;-34
2022/01/13 06:19:15;;;;;;;0.20;0.20;;;;;;;18.77;38.70;103649.22;5139629;27;20038;-33
2022/01/13 06:21:41;;;;;;;0.28;0.28;;;;;;;18.76;38.62;103648.38;5132950;27;20065;-40
2022/01/13 06:24:07;;;;;;;0.30;0.30;;;;;;;18.76;38.59;103659.41;5132287;27;20039;-32
2022/01/13 06:26:32;;;;;;;0.30;0.30;;;;;;;18.77;38.70;103668.53;5130319;27;20043;-33
2022/01/13 06:28:58;;;;;;;0.20;0.20;;;;;;;18.78;38.76;103673.00;5128570;27;20076;-33
2022/01/13 06:31:23;;;;;;;0.30;0.30;;;;;;;18.76;38.62;103669.59;5123348;27;20050;-33
2022/01/13 06:33:49;;;;;;;0.20;0.20;;;;;;;18.76;38.79;103670.47;5121675;27;20030;-33
2022/01/13 06:36:15;;;;;;;0.20;0.20;;;;;;;18.77;38.59;103671.31;5121733;27;20039;-33
2022/01/13 06:38:42;;;;;;;0.30;0.30;;;;;;;18.77;38.74;103676.81;5119069;27;20035;-37
2022/01/13 06:41:07;;;;;;;0.20;0.20;;;;;;;18.75;38.81;103666.00;5095985;27;20055;-40
2022/01/13 06:43:33;;;;;;;0.20;0.20;;;;;;;18.78;38.71;103667.47;5121276;27;20386;-35
2022/01/13 06:45:59;;;;;;;0.20;0.20;;;;;;;18.76;38.89;103664.09;5126094;27;20043;-34
2022/01/13 06:48:25;;;;;;;0.20;0.20;;;;;;;18.76;38.70;103675.97;5101636;27;20140;-37
2022/01/13 06:50:51;;;;;;;0.20;0.20;;;;;;;18.76;38.71;103675.13;5118684;27;20446;-36
2022/01/13 06:53:20;;;;;;;0.20;0.20;;;;;;;18.77;38.77;103685.94;5123478;27;20493;-34
2022/01/13 06:55:45;;;;;;;0.30;0.30;;;;;;;18.77;38.77;103690.63;5088383;27;20075;-34
2022/01/13 06:58:11;;;;;;;0.30;0.30;;;;;;;18.76;38.71;103684.25;5099921;28;20089;-35
2022/01/13 07:00:37;;;;;;;0.20;0.20;;;;;;;18.77;38.59;103690.63;5120936;27;20043;-33
2022/01/13 07:03:04;;;;;;;0.20;0.20;;;;;;;18.76;38.86;103681.50;5110347;27;20058;-32
2022/01/13 07:05:30;;;;;;;0.20;0.20;;;;;;;18.77;38.68;103683.19;5116229;27;20035;-33
2022/01/13 07:07:55;;;;;;;0.20;0.20;;;;;;;18.77;38.88;103679.59;5115677;27;21164;-34
2022/01/13 07:10:21;;;;;;;0.20;0.20;;;;;;;18.75;38.88;103677.06;5096077;27;20047;-32
2022/01/13 07:12:47;;;;;;;0.20;0.20;;;;;;;18.76;38.77;103678.75;5097781;27;20054;-36
2022/01/13 07:15:13;;;;;;;0.25;0.25;;;;;;;18.76;38.86;103677.91;5094722;28;20126;-38
2022/01/13 07:17:39;;;;;;;0.20;0.20;;;;;;;18.76;38.76;103688.94;5080337;27;20130;-33
2022/01/13 07:20:06;;;;;;;0.20;0.20;;;;;;;18.56;37.97;103688.88;5117881;27;20402;-37
2022/01/13 07:22:31;;;;;;;0.30;0.30;;;;;;;18.69;38.20;103680.63;5113143;27;20085;-39
2022/01/13 07:24:57;;;;;;;0.30;0.30;;;;;;;18.77;38.50;103687.88;5100602;27;20051;-41
2022/01/13 07:27:23;;;;;;;0.20;0.20;;;;;;;18.78;38.44;103692.31;5118960;27;20085;-40
2022/01/13 07:29:48;;;;;;;0.20;0.20;;;;;;;18.79;38.65;103697.66;5113997;27;20478;-36
2022/01/13 07:32:15;;;;;;;0.20;0.20;;;;;;;18.81;38.38;103689.16;5115505;27;20091;-36
2022/01/13 07:34:41;;;;;;;0.20;0.20;;;;;;;18.80;38.48;103696.59;5095468;27;20047;-35
2022/01/13 07:37:08;;;;;;;0.20;0.20;;;;;;;18.82;38.45;103687.22;5117072;27;20043;-33
2022/01/13 07:39:35;;;;;;;0.30;0.30;;;;;;;18.80;38.59;103691.06;5096004;27;20044;-34
2022/01/13 07:42:03;;;;;;;0.20;0.20;;;;;;;18.84;38.41;103693.41;5106445;27;20470;-35
2022/01/13 07:44:28;;;;;;;0.20;0.20;;;;;;;18.84;38.31;103694.25;5094098;27;20051;-39
2022/01/13 07:46:56;;;;;;;0.20;0.20;;;;;;;18.85;38.47;103698.72;5095321;27;20095;-34
2022/01/13 07:49:21;;;;;;;0.30;0.30;;;;;;;18.85;38.31;103707.00;5115694;27;20047;-36
2022/01/13 07:51:47;;;;;;;0.20;0.20;;;;;;;18.87;38.45;103710.41;5114785;27;20059;-38
2022/01/13 07:54:13;;;;;;;0.20;0.20;;;;;;;18.88;38.55;103717.63;5112321;27;20075;-35
2022/01/13 07:56:38;;;;;;;0.20;0.20;;;;;;;18.88;38.41;103712.09;5113674;27;20118;-37
2022/01/13 07:59:04;;;;;;;0.20;0.20;;;;;;;18.88;38.39;103722.31;5106115;27;20780;-33
2022/01/13 08:01:30;;;;;;;0.20;0.20;;;;;;;18.89;38.54;103726.75;5107940;27;20426;-33
2022/01/13 08:03:56;;;;;;;0.20;0.20;;;;;;;18.89;38.57;103733.13;5104942;27;20429;-37
2022/01/13 08:06:21;;;;;;;0.20;0.20;;;;;;;18.90;38.51;103720.16;5108958;27;20054;-33
2022/01/13 08:08:47;;;;;;;0.20;0.20;;;;;;;18.92;38.43;103721.66;5109948;27;20386;-34
2022/01/13 08:11:13;;;;;;;0.20;0.20;;;;;;;18.91;38.30;103717.22;5113434;27;20124;-32
2022/01/13 08:13:39;;;;;;;0.28;0.28;;;;;;;18.94;38.50;103721.44;5092206;27;20040;-36
2022/01/13 08:16:08;;;;;;;0.20;0.20;;;;;;;18.94;38.58;103718.69;5113807;27;20457;-34
2022/01/13 08:21:21;;;;;;;0.30;0.30;;;;;;;18.96;38.28;103709.13;5085675;27;20047;-34
2022/01/13 08:23:48;;;;;;;0.20;0.20;;;;;;;18.95;38.57;103710.16;5094222;27;20396;-36
2022/01/13 08:26:13;;;;;;;0.20;0.20;;;;;;;18.98;38.37;103725.47;5113399;27;20079;-36
2022/01/13 08:28:39;;;;;;;0.22;0.22;;;;;;;18.98;38.46;103725.47;5114627;27;20100;-38
2022/01/13 08:31:05;;;;;;;0.30;0.30;;;;;;;18.98;38.47;103729.09;5110569;27;20107;-38
2022/01/13 08:33:31;;;;;;;0.30;0.30;;;;;;;19.00;38.37;103726.13;5111146;27;20054;-33
2022/01/13 08:36:01;;;;;;;0.30;0.30;;;;;;;18.99;38.25;103730.78;5111458;27;20047;-36
2022/01/13 08:38:28;;;;;;;0.20;0.20;;;;;;;18.79;37.20;103729.94;5076545;28;20045;-36
2022/01/13 08:40:57;;;;;;;0.30;0.30;;;;;;;18.93;37.39;103733.56;5090793;27;20320;-38
2022/01/13 08:43:25;;;;;;;0.20;0.20;;;;;;;18.98;37.60;103734.63;5101716;27;20095;-36
2022/01/13 08:45:51;;;;;;;0.20;0.20;;;;;;;19.01;37.77;103727.81;5092840;28;20044;-41
2022/01/13 08:48:18;;;;;;;0.20;0.20;;;;;;;19.02;37.69;103727.59;5111461;27;20069;-38
2022/01/13 08:50:44;;;;;;;0.20;0.20;;;;;;;19.05;38.04;103727.19;5093487;27;20426;-40
2022/01/13 08:53:09;;;;;;;0.20;0.20;;;;;;;19.04;38.07;103730.16;5107889;27;20042;-39
2022/01/13 08:55:35;;;;;;;0.40;0.40;;;;;;;19.04;37.89;103725.50;5092809;28;20056;-37
2022/01/13 08:58:01;;;;;;;0.22;0.22;;;;;;;19.04;37.96;103722.72;5093353;27;20043;-36
2022/01/13 09:00:27;;;;;;;0.30;0.30;;;;;;;19.03;37.68;103717.41;5112246;27;20039;-35
2022/01/13 09:02:53;;;;;;;0.30;0.30;;;;;;;19.04;37.94;103732.91;5109732;27;20054;-37
2022/01/13 09:05:20;;;;;;;0.28;0.28;;;;;;;19.03;37.71;103739.50;5106933;27;20587;-36
2022/01/13 09:07:46;;;;;;;0.20;0.20;;;;;;;19.03;37.90;103740.34;5080789;27;20047;-39
2022/01/13 09:10:14;;;;;;;0.20;0.20;;;;;;;18.99;37.74;103739.06;5099334;27;20085;-40
2022/01/13 09:12:39;;;;;;;0.20;0.20;;;;;;;19.02;37.61;103738.66;5107003;27;20054;-40
2022/01/13 09:15:41;;;;;;;0.20;0.20;;;;;;;19.01;37.76;103742.47;5107760;27;20036;-38
2022/01/13 09:17:53;;;;;;;0.20;0.20;;;;;;;19.01;37.86;103744.41;5076617;27;20051;-36
2022/01/13 09:20:19;;;;;;;0.20;0.20;;;;;;;18.96;36.90;103747.78;5100946;27;20298;-42
2022/01/13 09:22:45;;;;;;;0.20;0.20;;;;;;;18.41;33.28;103757.19;5077027;27;20044;-38
2022/01/13 09:25:11;;;;;;;0.30;0.30;;;;;;;17.80;33.07;103757.97;5099342;27;20572;-47
2022/01/13 09:27:40;;;;;;;0.30;0.30;;;;;;;18.52;34.98;103745.53;5102837;27;20078;-46
2022/01/13 09:30:08;;;;;;;0.20;0.20;;;;;;;18.74;35.20;103749.91;5102719;27;20215;-44
2022/01/13 09:32:36;;;;;;;0.20;0.20;;;;;;;18.83;35.41;103749.69;5082778;27;20075;-47
2022/01/13 09:35:04;;;;;;;0.20;0.20;;;;;;;18.88;35.53;103756.28;5093028;27;20055;-47
2022/01/13 09:37:30;;;;;;;;;;;;;;;18.92;35.37;103760.31;5099958;27;20405;-41
2022/01/13 09:39:56;;;;;;;0.20;0.20;;;;;;;18.94;35.52;103768.38;5099887;27;20407;-49
2022/01/13 09:42:22;;;;;;;0.20;0.20;;;;;;;18.95;35.79;103759.88;5098965;27;20047;-42
2022/01/13 09:44:48;;;;;;;0.20;0.20;;;;;;;18.97;35.75;103752.25;5081787;27;20051;-45
2022/01/13 09:47:14;;;;;;;0.20;0.20;;;;;;;18.99;35.90;103752.03;5094625;27;20048;-45
2022/01/13 09:49:43;;;;;;;0.20;0.20;;;;;;;19.01;35.99;103750.78;5099132;27;20131;-47
2022/01/13 09:52:10;;;;;;;0.20;0.20;;;;;;;19.02;36.14;103752.47;5100854;27;20095;-41
2022/01/13 09:54:35;;;;;;;0.20;0.20;;;;;;;19.02;36.09;103748.84;5104258;27;20048;-47
2022/01/13 09:57:02;;;;;;;0.22;0.22;;;;;;;19.10;35.15;103754.19;5102125;27;20742;-45
2022/01/13 09:59:27;;;;;;;0.20;0.20;;;;;;;19.15;35.29;103746.09;5085211;28;20398;-45
2022/01/13 10:01:53;;;;;;;0.20;0.20;;;;;;;19.14;34.72;103743.56;5085913;27;20048;-43
2022/01/13 10:04:19;;;;;;;0.20;0.20;;;;;;;18.99;34.23;103747.34;5099410;27;20422;-45
2022/01/13 10:06:47;;;;;;;0.20;0.20;;;;;;;19.02;33.85;103752.47;5105803;27;21631;-44
2022/01/13 10:09:14;;;;;;;0.20;0.20;;;;;;;19.06;35.42;103750.13;5113634;27;20336;-43
2022/01/13 10:11:48;;;;;;;0.20;0.20;;;;;;;19.21;34.95;103755.44;5111251;27;20429;-43
2022/01/13 10:17:06;;;;;;;0.30;0.30;;;;;;;19.30;35.39;103755.03;5150155;27;20527;-44
2022/01/13 10:19:37;;;;;;;0.20;0.20;;;;;;;19.33;34.84;103758.41;5125124;27;20043;-42
2022/01/13 10:22:08;;;;;;;0.20;0.20;;;;;;;19.18;34.89;103756.72;5108685;27;20072;-42
2022/01/13 10:24:36;;;;;;;0.20;0.20;;;;;;;18.93;34.17;103759.25;5123627;27;20482;-41
2022/01/13 10:27:06;;;;;;;0.20;0.20;;;;;;;19.00;33.72;103760.13;5109877;27;20049;-48
2022/01/13 10:29:54;;;;;;;0.20;0.20;;;;;;;18.97;34.03;103757.78;5106573;27;20067;-45
2022/01/13 10:32:25;;;;;;;0.20;0.20;;;;;;;19.01;33.88;103761.81;5107849;27;20808;-42
2022/01/13 10:34:57;;;;;;;0.20;0.20;;;;;;;18.92;33.41;103749.28;5127641;27;20427;-42
2022/01/13 10:37:40;;;;;;;0.20;0.20;;;;;;;19.00;34.26;103751.84;5109640;27;20050;-45
2022/01/13 10:40:12;;;;;;;0.20;0.20;;;;;;;18.91;34.65;103749.47;5105729;27;20051;-45
2022/01/13 10:43:06;;;;;;;0.20;0.20;;;;;;;19.22;35.51;103741.44;5130536;27;20046;-46
2022/01/13 10:45:35;;;;;;;0.20;0.20;;;;;;;19.35;35.24;103739.72;5102487;27;20065;-44
2022/01/13 10:48:05;;;;;;;0.20;0.20;;;;;;;19.38;35.43;103742.88;5123563;27;20187;-46
2022/01/13 10:50:34;;;;;;;0.20;0.20;;;;;;;19.40;35.34;103743.53;5109695;27;20054;-43
2022/01/13 10:53:04;;;;;;;0.20;0.20;;;;;;;19.42;35.33;103737.78;5124852;27;20047;-44
2022/01/13 10:55:34;;;;;;;0.20;0.20;;;;;;;19.42;35.44;103735.88;5127301;27;20468;-43
2022/01/13 10:58:10;;;;;;;0.20;0.20;;;;;;;19.45;35.25;103734.59;5103137;27;20050;-43
2022/01/13 11:00:36;;;;;;;0.20;0.20;;;;;;;19.45;35.61;103729.91;5135599;27;20057;-43
2022/01/13 11:03:12;;;;;;;0.20;0.20;;;;;;;19.46;35.39;103731.59;5108404;27;20063;-44
2022/01/13 11:05:46;;;;;;;0.20;0.20;;;;;;;19.46;35.63;103723.31;5114268;27;20055;-45
2022/01/13 11:08:11;;;;;;;0.20;0.20;;;;;;;19.48;35.52;103725.88;5135065;27;20075;-49
2022/01/13 11:10:47;;;;;;;0.20;0.20;;;;;;;19.48;35.51;103720.34;5109364;27;20057;-46
2022/01/13 11:13:18;;;;;;;0.20;0.20;;;;;;;19.50;35.38;103715.44;5107608;27;20043;-45
2022/01/13 11:15:49;;;;;;;0.20;0.20;;;;;;;19.51;35.39;103711.59;5110347;27;20071;-43
2022/01/13 11:18:16;;;;;;;0.20;0.20;;;;;;;19.51;35.30;103712.47;5108136;27;20049;-44
2022/01/13 11:20:42;;;;;;;0.20;0.20;;;;;;;19.52;35.21;103703.13;5130238;27;20089;-45
2022/01/13 11:23:08;;;;;;;0.20;0.20;;;;;;;19.52;35.34;103699.50;5125202;27;20042;-43
2022/01/13 11:25:34;;;;;;;0.20;0.20;;;;;;;19.53;35.24;103707.56;5134610;27;20069;-43
2022/01/13 11:28:00;;;;;;;0.28;0.28;;;;;;;19.52;35.23;103699.50;5102727;27;20192;-44
2022/01/13 11:30:31;;;;;;;0.20;0.20;;;;;;;19.53;34.97;103702.06;5120898;27;20471;-45
2022/01/13 11:32:56;;;;;;;0.20;0.20;;;;;;;19.53;34.92;103701.22;5110992;27;20501;-44
2022/01/13 11:35:26;;;;;;;0.20;0.20;;;;;;;19.54;35.01;103700.13;5115801;27;20426;-43
2022/01/13 11:37:52;;;;;;;0.20;0.20;;;;;;;19.54;35.00;103697.38;5114628;27;20153;-44
2022/01/13 11:40:36;;;;;;;0.20;0.20;;;;;;;19.55;34.97;103704.59;5122978;27;20493;-43
2022/01/13 11:43:04;;;;;;;0.20;0.20;;;;;;;19.55;34.65;103699.91;5088766;27;20147;-43
2022/01/13 11:45:36;;;;;;;0.20;0.20;;;;;;;19.54;34.89;103702.91;5089243;27;20051;-45
2022/01/13 11:48:24;;;;;;;0.20;0.20;;;;;;;19.53;34.98;103691.00;5105565;27;20096;-44